Pagina principale
METAR-TAF:

METAR-TAF

Aeroporti :

Aeroporto di Pescara

Pescara, Italia

latitudine: 42-26N, longitudine: 014-12E, altezza: 10 m

Osservazione

Il bollettino è stato emesso 38 minuti fa, alle 09:50 UTC
Vento 9 kt da est/nord-est
Temperature 24°C
Umidità 61%
Pressione 1008 hPa
Visibilità 10 km o più

METAR: LIBP 070950Z AUTO 07009KT 9999 NCD 24/16 Q1008

Ora: 12:28 (10:28 UTC)

Previsione

Il bollettino è stato emesso 5 ore e 28 minuti fa, alle 05:00 UTC
Previsione valida dal 07 alle 06 UTC al 08 alle 06 UTC
Vento 4 kt da direzioni variabili
Visibilità 10 km o più
Nubi sparse ad un'altezza di 3000 ft
Evoluzione graduale
dal 07 alle 08 UTC al 07 alle 10 UTC
Vento 10 kt da est
Evoluzione graduale
dal 07 alle 17 UTC al 07 alle 19 UTC
Vento 5 kt da direzioni variabili

TAF: LIBP 070500Z 0706/0806 VRB04KT 9999 SCT030 BECMG 0708/0710 10010KT BECMG 0717/0719 VRB05KT

Osservazioni e previsioni meteorologiche di più di 4000 aeroporti (messaggi METAR e TAF).

Le stazioni disponibili sono rappresentate dai dischi gialli e rossi sulla carta.

Puntare il mouse per vedere il nome della stazione.

Clicca sopra per visualizzare le osservazioni e previsioni meteorologiche.

Per cambiare la mappa : fare clic sui pulsanti verdi con una croce nera per ingrandire, il pulsante verde con un trattino per diminuire, o sulla freccia verde per le mappe adiacenti.


METAR-TAF: